createdAt,value
2023-04-23T00:00:13.728Z,14.10
2023-04-23T00:02:47.058Z,14.00
2023-04-23T00:05:16.928Z,14.00
2023-04-23T00:07:46.042Z,14.00
2023-04-23T00:10:15.001Z,14.00
2023-04-23T00:12:44.670Z,14.00
2023-04-23T00:15:16.068Z,14.00
2023-04-23T00:17:44.657Z,14.00
2023-04-23T00:20:13.373Z,14.00
2023-04-23T00:22:42.072Z,14.00
2023-04-23T00:25:11.796Z,14.00
2023-04-23T00:27:40.370Z,14.00
2023-04-23T00:30:10.135Z,14.00
2023-04-23T00:32:40.199Z,13.90
2023-04-23T00:35:09.698Z,14.00
2023-04-23T00:37:38.259Z,14.00
2023-04-23T00:40:07.901Z,14.00
2023-04-23T00:42:36.796Z,14.10
2023-04-23T00:45:06.148Z,14.00
2023-04-23T00:47:35.422Z,14.00
2023-04-23T00:50:06.900Z,14.00
2023-04-23T00:52:36.205Z,14.10
2023-04-23T00:55:05.413Z,14.00
2023-04-23T00:57:34.335Z,14.00
2023-04-23T01:00:03.123Z,14.00
2023-04-23T01:02:33.235Z,14.00
2023-04-23T01:05:03.322Z,14.00
2023-04-23T01:07:35.995Z,14.00
2023-04-23T01:10:06.093Z,14.00
2023-04-23T01:12:36.014Z,14.00
2023-04-23T01:15:05.842Z,14.00
2023-04-23T01:17:34.914Z,14.00
2023-04-23T01:20:03.457Z,14.00
2023-04-23T01:22:34.724Z,14.00
2023-04-23T01:25:04.305Z,14.00
2023-04-23T01:27:33.319Z,14.00
2023-04-23T01:30:02.645Z,14.00
2023-04-23T01:32:31.290Z,14.00
2023-04-23T01:35:00.969Z,14.00
2023-04-23T01:37:30.911Z,14.00
2023-04-23T01:40:01.266Z,14.10
2023-04-23T01:42:29.863Z,14.00
2023-04-23T01:44:58.465Z,14.00
2023-04-23T01:47:27.689Z,14.00
2023-04-23T01:49:56.591Z,13.90
2023-04-23T01:52:25.100Z,13.80
2023-04-23T01:54:53.624Z,13.70
2023-04-23T01:57:26.790Z,13.70
2023-04-23T02:00:00.142Z,13.60
2023-04-23T02:02:28.944Z,13.50
2023-04-23T02:04:59.769Z,13.30
2023-04-23T02:07:28.367Z,13.00
2023-04-23T02:09:56.902Z,12.80
2023-04-23T02:12:27.013Z,12.50
2023-04-23T02:14:55.786Z,12.30
2023-04-23T02:17:25.134Z,12.30
2023-04-23T02:19:55.944Z,12.20
2023-04-23T02:22:26.931Z,12.20
2023-04-23T02:24:56.160Z,12.20
2023-04-23T02:27:26.578Z,12.10
2023-04-23T02:29:55.420Z,12.00
2023-04-23T02:32:24.135Z,11.90
2023-04-23T02:34:53.071Z,11.90
2023-04-23T02:37:22.144Z,11.90
2023-04-23T02:39:50.819Z,11.90
2023-04-23T02:42:19.508Z,11.90
2023-04-23T02:44:51.022Z,11.90
2023-04-23T02:47:19.743Z,11.90
2023-04-23T02:49:48.461Z,12.00
2023-04-23T02:52:17.701Z,12.10
2023-04-23T02:54:46.408Z,12.10
2023-04-23T02:57:16.689Z,12.20
2023-04-23T02:59:45.349Z,12.20
2023-04-23T03:02:15.643Z,12.20
2023-04-23T03:04:45.268Z,12.20
2023-04-23T03:07:14.115Z,12.30
2023-04-23T03:09:42.992Z,12.30
2023-04-23T03:12:11.808Z,12.20
2023-04-23T03:14:40.695Z,12.20
2023-04-23T03:17:10.433Z,12.10
2023-04-23T03:19:40.329Z,12.10
2023-04-23T03:22:08.738Z,12.10
2023-04-23T03:24:37.206Z,12.00
2023-04-23T03:27:06.125Z,12.00
2023-04-23T03:29:34.619Z,12.00
2023-04-23T03:32:04.151Z,12.10
2023-04-23T03:34:32.735Z,12.20
2023-04-23T03:37:02.602Z,12.30
2023-04-23T03:39:31.280Z,12.30
2023-04-23T03:41:59.886Z,12.30
2023-04-23T03:44:28.390Z,12.40
2023-04-23T03:46:56.861Z,12.40
2023-04-23T03:49:27.639Z,12.40
2023-04-23T03:51:56.106Z,12.40
2023-04-23T03:54:26.805Z,12.40
2023-04-23T03:56:55.356Z,12.50
2023-04-23T03:59:24.077Z,12.50
2023-04-23T04:01:52.643Z,12.50
2023-04-23T04:04:21.518Z,12.50
2023-04-23T04:06:50.199Z,12.40
2023-04-23T04:09:18.875Z,12.30
2023-04-23T04:11:48.495Z,12.20
2023-04-23T04:14:16.756Z,12.20
2023-04-23T04:16:44.985Z,12.20
2023-04-23T04:19:13.266Z,12.20
2023-04-23T04:21:41.554Z,11.40
2023-04-23T04:24:11.614Z,12.20
2023-04-23T04:26:40.227Z,12.20
2023-04-23T04:29:10.625Z,12.30
2023-04-23T04:31:39.267Z,12.30
2023-04-23T04:34:09.150Z,12.40
2023-04-23T04:36:37.348Z,12.40
2023-04-23T04:39:05.724Z,12.40
2023-04-23T04:41:33.990Z,12.50
2023-04-23T04:44:02.182Z,12.50
2023-04-23T04:46:31.949Z,12.60
2023-04-23T04:49:00.327Z,12.60
2023-04-23T04:51:28.854Z,12.70
2023-04-23T04:53:57.030Z,12.70
2023-04-23T04:56:25.949Z,12.80
2023-04-23T04:58:54.225Z,12.80
2023-04-23T05:01:23.300Z,12.80
2023-04-23T05:03:53.834Z,12.80
2023-04-23T05:06:22.302Z,12.80
2023-04-23T05:08:50.736Z,12.90
2023-04-23T05:11:20.148Z,12.90
2023-04-23T05:13:48.956Z,12.90
2023-04-23T05:16:17.303Z,13.00
2023-04-23T05:18:45.624Z,13.10
2023-04-23T05:21:16.446Z,13.10
2023-04-23T05:23:44.642Z,13.20
2023-04-23T05:26:13.153Z,13.30
2023-04-23T05:28:41.504Z,13.40
2023-04-23T05:31:09.913Z,13.40
2023-04-23T05:33:49.087Z,13.50
2023-04-23T05:36:20.269Z,13.50
2023-04-23T05:38:48.664Z,13.40
2023-04-23T05:41:17.178Z,13.50
2023-04-23T05:43:45.518Z,13.50
2023-04-23T05:46:13.806Z,13.40
2023-04-23T05:48:42.047Z,13.30
2023-04-23T05:51:10.319Z,13.40
2023-04-23T05:53:39.893Z,13.60
2023-04-23T05:56:08.226Z,13.70
2023-04-23T05:58:36.667Z,13.90
2023-04-23T06:01:05.029Z,13.90
2023-04-23T06:03:33.447Z,14.00
2023-04-23T06:06:02.289Z,14.00
2023-04-23T06:08:30.650Z,14.10
2023-04-23T06:11:02.096Z,14.20
2023-04-23T06:13:30.966Z,14.20
2023-04-23T06:15:59.635Z,14.20
2023-04-23T06:18:28.302Z,14.10
2023-04-23T06:20:57.405Z,14.10
2023-04-23T06:23:25.732Z,14.30
2023-04-23T06:25:54.230Z,14.40
2023-04-23T06:28:24.097Z,14.50
2023-04-23T06:30:52.528Z,14.60
2023-04-23T06:33:20.960Z,14.70
2023-04-23T06:35:49.437Z,14.60
2023-04-23T06:38:21.176Z,14.60
2023-04-23T06:40:49.644Z,14.60
2023-04-23T06:43:18.377Z,14.70
2023-04-23T06:45:48.283Z,14.90
2023-04-23T06:48:16.903Z,14.80
2023-04-23T06:50:45.660Z,14.70
2023-04-23T06:53:14.083Z,14.50
2023-04-23T06:55:42.544Z,14.50
2023-04-23T06:58:11.887Z,14.50
2023-04-23T07:00:41.013Z,14.40
2023-04-23T07:03:11.012Z,14.30
2023-04-23T07:05:39.437Z,14.10
2023-04-23T07:08:07.644Z,14.40
2023-04-23T07:10:35.972Z,13.80
2023-04-23T07:13:04.241Z,13.70
2023-04-23T07:15:32.563Z,13.50
2023-04-23T07:18:01.063Z,13.50
2023-04-23T07:20:30.848Z,13.50
2023-04-23T07:23:00.884Z,13.50
2023-04-23T07:25:29.386Z,13.40
2023-04-23T07:27:57.755Z,13.30
2023-04-23T07:30:27.399Z,13.20
2023-04-23T07:32:56.688Z,13.20
2023-04-23T07:35:25.000Z,13.10
2023-04-23T07:37:56.140Z,13.20
2023-04-23T07:40:24.931Z,13.30
2023-04-23T07:42:53.923Z,13.30
2023-04-23T07:45:22.324Z,13.50
2023-04-23T07:47:51.554Z,13.50
2023-04-23T07:50:19.968Z,13.50
2023-04-23T07:52:48.549Z,13.50
2023-04-23T07:55:20.337Z,13.40
2023-04-23T07:57:48.624Z,13.30
2023-04-23T08:00:17.268Z,13.50
2023-04-23T08:02:45.918Z,13.50
2023-04-23T08:05:14.555Z,13.60
2023-04-23T08:07:42.901Z,13.70
2023-04-23T08:10:11.490Z,13.80
2023-04-23T08:12:41.399Z,13.70
2023-04-23T08:15:10.727Z,13.80
2023-04-23T08:17:39.349Z,14.00
2023-04-23T08:20:09.165Z,14.10
2023-04-23T08:22:37.527Z,14.20
2023-04-23T08:25:06.632Z,14.10
2023-04-23T08:27:34.845Z,14.10
2023-04-23T08:30:04.843Z,14.20
2023-04-23T08:32:33.212Z,14.20
2023-04-23T08:35:01.486Z,14.40
2023-04-23T08:37:31.454Z,14.80
2023-04-23T08:40:00.263Z,15.30
2023-04-23T08:42:36.725Z,15.80
2023-04-23T08:45:07.528Z,16.20
2023-04-23T08:47:36.949Z,16.30
2023-04-23T08:50:06.747Z,15.50
2023-04-23T08:52:40.009Z,15.40
2023-04-23T08:55:11.913Z,15.30
2023-04-23T08:57:42.032Z,15.70
2023-04-23T09:00:13.855Z,15.70
2023-04-23T09:02:44.441Z,15.50
2023-04-23T09:05:13.619Z,15.10
2023-04-23T09:07:42.977Z,14.90
2023-04-23T09:10:13.664Z,14.80
2023-04-23T09:12:45.371Z,14.70
2023-04-23T09:15:15.273Z,14.50
2023-04-23T09:17:46.138Z,14.40
2023-04-23T09:20:15.629Z,14.30
2023-04-23T09:22:47.410Z,14.10
2023-04-23T09:25:19.823Z,14.00
2023-04-23T09:27:48.733Z,13.70
2023-04-23T09:30:19.370Z,13.70
2023-04-23T09:32:49.593Z,13.50
2023-04-23T09:35:19.961Z,13.50
2023-04-23T09:37:50.116Z,13.40
2023-04-23T09:40:20.188Z,13.30
2023-04-23T09:42:50.093Z,13.30
2023-04-23T09:45:20.045Z,13.20
2023-04-23T09:47:52.806Z,13.20
2023-04-23T09:50:21.492Z,13.10
2023-04-23T09:52:56.369Z,13.00
2023-04-23T09:55:31.030Z,13.10
2023-04-23T09:58:00.629Z,13.10
2023-04-23T10:00:34.766Z,13.00
2023-04-23T10:03:03.275Z,13.00
2023-04-23T10:05:45.091Z,13.00
2023-04-23T10:08:20.717Z,13.00
2023-04-23T10:13:21.529Z,13.10
2023-04-23T10:15:51.441Z,12.90
2023-04-23T10:18:21.184Z,13.00
2023-04-23T10:20:51.070Z,12.70
2023-04-23T10:23:23.190Z,12.70
2023-04-23T10:25:54.472Z,12.70
2023-04-23T10:28:29.297Z,12.60
2023-04-23T10:31:01.018Z,12.60
2023-04-23T10:33:39.783Z,12.90
2023-04-23T10:36:11.256Z,13.20
2023-04-23T10:38:56.925Z,13.50
2023-04-23T10:41:30.674Z,13.70
2023-04-23T10:43:59.604Z,13.90
2023-04-23T10:46:34.771Z,14.10
2023-04-23T10:49:08.594Z,14.30
2023-04-23T10:54:17.271Z,14.50
2023-04-23T10:56:45.698Z,14.50
2023-04-23T10:59:22.062Z,14.70
2023-04-23T11:01:52.766Z,14.80
2023-04-23T11:04:23.274Z,14.80
2023-04-23T11:06:59.399Z,14.90
2023-04-23T11:09:39.140Z,14.90
2023-04-23T11:12:09.879Z,15.10
2023-04-23T11:14:43.310Z,15.00
2023-04-23T11:17:15.989Z,14.90
2023-04-23T11:20:11.700Z,14.80
2023-04-23T11:22:40.818Z,15.00
2023-04-23T11:25:12.225Z,15.00
2023-04-23T11:27:42.345Z,14.60
2023-04-23T11:30:14.269Z,14.80
2023-04-23T11:32:49.428Z,14.90
2023-04-23T11:35:19.938Z,14.80
2023-04-23T11:37:49.479Z,14.80
2023-04-23T11:40:20.354Z,14.80
2023-04-23T11:42:50.643Z,14.80
2023-04-23T11:45:20.409Z,14.50
2023-04-23T11:47:55.884Z,14.70
2023-04-23T11:50:26.548Z,15.10
2023-04-23T11:52:58.041Z,15.00
2023-04-23T11:55:26.634Z,15.00
2023-04-23T11:57:54.919Z,14.70
2023-04-23T12:00:25.086Z,14.70
2023-04-23T12:02:59.846Z,14.60
2023-04-23T12:05:30.368Z,14.30
2023-04-23T12:08:10.040Z,14.40
2023-04-23T12:10:45.059Z,14.70
2023-04-23T12:13:17.594Z,14.80
2023-04-23T12:15:50.264Z,15.20
2023-04-23T12:18:20.372Z,15.20
2023-04-23T12:20:48.720Z,15.60
2023-04-23T12:23:17.338Z,15.70
2023-04-23T12:25:45.896Z,16.10
2023-04-23T12:28:14.212Z,16.40
2023-04-23T12:30:46.199Z,16.60
2023-04-23T12:33:14.956Z,16.70
2023-04-23T12:35:46.868Z,16.70
2023-04-23T12:38:32.971Z,17.00
2023-04-23T12:41:02.000Z,17.20
2023-04-23T12:43:30.438Z,17.30
2023-04-23T12:45:58.755Z,17.00
2023-04-23T12:48:27.093Z,16.70
2023-04-23T12:50:56.999Z,16.70
2023-04-23T12:53:25.451Z,16.80
2023-04-23T12:55:53.734Z,16.90
2023-04-23T12:58:22.053Z,16.70
2023-04-23T13:00:50.544Z,16.80
2023-04-23T13:03:19.685Z,16.60
2023-04-23T13:05:48.279Z,16.70
2023-04-23T13:08:18.011Z,16.90
2023-04-23T13:10:46.314Z,17.00
2023-04-23T13:13:14.697Z,17.00
2023-04-23T13:15:44.016Z,16.90
2023-04-23T13:18:12.423Z,17.10
2023-04-23T13:20:40.842Z,17.10
2023-04-23T13:23:10.859Z,17.20
2023-04-23T13:25:40.596Z,17.40
2023-04-23T13:28:09.045Z,17.50
2023-04-23T13:30:37.369Z,17.60
2023-04-23T13:33:05.814Z,17.70
2023-04-23T13:35:37.687Z,17.80
2023-04-23T13:38:06.231Z,17.70
2023-04-23T13:40:35.567Z,17.50
2023-04-23T13:43:06.169Z,17.60
2023-04-23T13:45:34.540Z,17.80
2023-04-23T13:48:03.363Z,18.00
2023-04-23T13:50:31.893Z,17.90
2023-04-23T13:53:00.239Z,17.80
2023-04-23T13:55:28.606Z,17.70
2023-04-23T13:57:58.849Z,17.70
2023-04-23T14:00:30.036Z,17.90
2023-04-23T14:02:58.582Z,18.10
2023-04-23T14:05:27.150Z,18.10
2023-04-23T14:07:55.549Z,18.00
2023-04-23T14:10:24.160Z,18.20
2023-04-23T14:12:53.245Z,18.10
2023-04-23T14:15:21.706Z,18.30
2023-04-23T14:17:51.520Z,18.30
2023-04-23T14:20:20.250Z,18.40
2023-04-23T14:22:51.854Z,18.20
2023-04-23T14:25:26.892Z,17.80
2023-04-23T14:27:58.217Z,17.90
2023-04-23T14:30:27.956Z,18.10
2023-04-23T14:32:57.659Z,18.20
2023-04-23T14:35:35.973Z,18.10
2023-04-23T14:38:10.114Z,18.20
2023-04-23T14:40:38.451Z,18.00
2023-04-23T14:43:15.124Z,18.20
2023-04-23T14:45:44.608Z,18.40
2023-04-23T14:48:14.255Z,18.40
2023-04-23T14:50:42.618Z,18.40
2023-04-23T14:53:10.961Z,18.30
2023-04-23T14:55:39.972Z,18.30
2023-04-23T14:58:08.274Z,18.10
2023-04-23T15:00:36.891Z,18.20
2023-04-23T15:03:11.188Z,17.90
2023-04-23T15:05:41.777Z,17.90
2023-04-23T15:08:10.283Z,17.80
2023-04-23T15:10:38.815Z,17.90
2023-04-23T15:13:10.490Z,18.10
2023-04-23T15:15:45.339Z,18.10
2023-04-23T15:18:14.881Z,18.00
2023-04-23T15:20:45.537Z,17.90
2023-04-23T15:23:14.097Z,18.00
2023-04-23T15:25:42.573Z,18.30
2023-04-23T15:28:11.079Z,18.50
2023-04-23T15:30:40.881Z,18.50
2023-04-23T15:33:09.473Z,18.70
2023-04-23T15:35:38.013Z,18.70
2023-04-23T15:38:08.153Z,18.80
2023-04-23T15:40:42.284Z,18.40
2023-04-23T15:43:13.590Z,18.40
2023-04-23T15:45:42.837Z,18.60
2023-04-23T15:48:11.599Z,18.60
2023-04-23T15:50:39.966Z,18.60
2023-04-23T15:53:09.730Z,18.20
2023-04-23T15:55:39.244Z,18.20
2023-04-23T15:58:07.917Z,18.30
2023-04-23T16:00:36.232Z,18.30
2023-04-23T16:03:06.677Z,18.30
2023-04-23T16:05:36.387Z,18.20
2023-04-23T16:08:04.809Z,18.10
2023-04-23T16:10:34.761Z,18.00
2023-04-23T16:13:03.910Z,17.90
2023-04-23T16:15:32.352Z,17.70
2023-04-23T16:18:00.896Z,17.50
2023-04-23T16:20:29.983Z,17.40
2023-04-23T16:22:58.368Z,17.40
2023-04-23T16:25:26.844Z,17.40
2023-04-23T16:27:57.416Z,17.40
2023-04-23T16:30:26.419Z,17.50
2023-04-23T16:32:54.783Z,17.60
2023-04-23T16:35:23.355Z,17.60
2023-04-23T16:37:52.110Z,17.70
2023-04-23T16:40:21.556Z,17.70
2023-04-23T16:42:49.900Z,17.70
2023-04-23T16:45:23.173Z,17.70
2023-04-23T16:47:51.646Z,17.60
2023-04-23T16:50:20.133Z,17.40
2023-04-23T16:52:48.735Z,17.20
2023-04-23T16:55:17.837Z,17.10
2023-04-23T16:57:46.449Z,17.00
2023-04-23T17:00:16.851Z,16.90
2023-04-23T17:02:47.303Z,16.80
2023-04-23T17:05:16.629Z,16.70
2023-04-23T17:07:45.648Z,16.60
2023-04-23T17:10:15.594Z,16.50
2023-04-23T17:12:44.231Z,16.40
2023-04-23T17:15:13.501Z,16.30
2023-04-23T17:17:42.563Z,16.30
2023-04-23T17:20:12.749Z,16.30
2023-04-23T17:22:41.552Z,16.30
2023-04-23T17:25:11.254Z,16.30
2023-04-23T17:27:39.893Z,16.30
2023-04-23T17:30:09.849Z,16.40
2023-04-23T17:32:40.913Z,16.40
2023-04-23T17:35:11.765Z,16.40
2023-04-23T17:37:40.568Z,16.40
2023-04-23T17:40:11.220Z,16.40
2023-04-23T17:42:40.168Z,16.40
2023-04-23T17:45:10.263Z,16.40
2023-04-23T17:47:41.194Z,16.40
2023-04-23T17:50:12.918Z,16.40
2023-04-23T17:52:42.177Z,16.40
2023-04-23T17:55:11.294Z,16.30
2023-04-23T17:57:40.106Z,16.30
2023-04-23T18:00:12.388Z,16.20
2023-04-23T18:02:41.874Z,16.20
2023-04-23T18:05:14.312Z,16.20
2023-04-23T18:07:44.417Z,16.20
2023-04-23T18:10:13.594Z,16.10
2023-04-23T18:12:42.409Z,16.00
2023-04-23T18:15:12.552Z,15.90
2023-04-23T18:17:41.295Z,15.80
2023-04-23T18:20:12.746Z,15.70
2023-04-23T18:22:42.473Z,15.60
2023-04-23T18:25:11.557Z,15.50
2023-04-23T18:27:40.251Z,15.30
2023-04-23T18:30:09.870Z,14.60
2023-04-23T18:32:43.207Z,15.10
2023-04-23T18:35:13.225Z,15.00
2023-04-23T18:37:44.769Z,14.90
2023-04-23T18:40:13.502Z,14.80
2023-04-23T18:42:41.987Z,14.80
2023-04-23T18:45:11.331Z,14.70
2023-04-23T18:47:45.339Z,14.70
2023-04-23T18:50:36.492Z,14.60
2023-04-23T18:53:06.288Z,14.50
2023-04-23T18:55:34.931Z,14.50
2023-04-23T18:58:03.372Z,14.40
2023-04-23T19:00:31.897Z,14.50
2023-04-23T19:03:02.765Z,14.40
2023-04-23T19:05:36.596Z,14.40
2023-04-23T19:08:05.116Z,14.30
2023-04-23T19:10:33.721Z,14.30
2023-04-23T19:13:02.293Z,14.20
2023-04-23T19:15:30.827Z,14.10
2023-04-23T19:17:59.546Z,14.10
2023-04-23T19:20:28.515Z,14.00
2023-04-23T19:22:58.277Z,14.00
2023-04-23T19:25:26.880Z,14.00
2023-04-23T19:27:55.206Z,13.90
2023-04-23T19:30:23.718Z,13.90
2023-04-23T19:32:52.263Z,13.90
2023-04-23T19:35:21.109Z,13.90
2023-04-23T19:37:49.487Z,13.90
2023-04-23T19:40:19.548Z,13.90
2023-04-23T19:42:48.771Z,14.00
2023-04-23T19:45:18.524Z,14.00
2023-04-23T19:47:47.272Z,14.00
2023-04-23T19:50:16.668Z,14.00
2023-04-23T19:52:45.292Z,14.70
2023-04-23T19:55:13.876Z,13.90
2023-04-23T19:57:43.752Z,13.80
2023-04-23T20:00:14.494Z,13.80
2023-04-23T20:02:43.553Z,13.70
2023-04-23T20:05:12.226Z,13.70
2023-04-23T20:07:41.006Z,13.60
2023-04-23T20:10:10.415Z,13.60
2023-04-23T20:12:40.018Z,13.50
2023-04-23T20:15:12.798Z,13.50
2023-04-23T20:17:42.011Z,13.50
2023-04-23T20:20:11.264Z,13.40
2023-04-23T20:22:39.930Z,13.40
2023-04-23T20:25:10.746Z,13.30
2023-04-23T20:27:39.333Z,13.30
2023-04-23T20:30:12.359Z,13.20
2023-04-23T20:32:41.743Z,13.20
2023-04-23T20:35:11.043Z,13.10
2023-04-23T20:37:39.552Z,13.10
2023-04-23T20:40:10.724Z,13.00
2023-04-23T20:42:39.878Z,13.00
2023-04-23T20:45:10.923Z,12.90
2023-04-23T20:47:41.612Z,12.90
2023-04-23T20:50:11.207Z,12.90
2023-04-23T20:52:40.302Z,12.90
2023-04-23T20:55:10.805Z,12.90
2023-04-23T20:57:39.743Z,13.00
2023-04-23T21:00:12.070Z,13.00
2023-04-23T21:02:42.246Z,13.00
2023-04-23T21:05:13.050Z,13.00
2023-04-23T21:07:41.485Z,13.00
2023-04-23T21:10:10.203Z,13.00
2023-04-23T21:12:38.785Z,13.00
2023-04-23T21:15:08.396Z,12.90
2023-04-23T21:17:36.996Z,12.90
2023-04-23T21:20:08.414Z,12.90
2023-04-23T21:22:37.327Z,12.90
2023-04-23T21:25:06.513Z,12.90
2023-04-23T21:27:35.595Z,12.90
2023-04-23T21:30:09.831Z,12.90
2023-04-23T21:32:38.276Z,12.90
2023-04-23T21:35:09.045Z,12.90
2023-04-23T21:37:38.076Z,12.80
2023-04-23T21:40:07.858Z,12.80
2023-04-23T21:42:36.658Z,12.80
2023-04-23T21:45:05.474Z,12.70
2023-04-23T21:47:33.846Z,12.70
2023-04-23T21:50:02.397Z,12.70
2023-04-23T21:52:32.416Z,12.60
2023-04-23T21:55:01.342Z,12.60
2023-04-23T21:57:29.668Z,12.60
2023-04-23T21:59:57.951Z,12.50
2023-04-23T22:02:27.269Z,12.50
2023-04-23T22:04:56.007Z,12.50
2023-04-23T22:07:27.087Z,12.40
2023-04-23T22:10:00.713Z,12.40
2023-04-23T22:12:29.418Z,12.40
2023-04-23T22:14:58.813Z,12.30
2023-04-23T22:17:31.194Z,12.30
2023-04-23T22:19:59.880Z,12.20
2023-04-23T22:22:28.552Z,12.20
2023-04-23T22:24:58.662Z,12.20
2023-04-23T22:27:27.326Z,12.20
2023-04-23T22:29:56.007Z,12.10
2023-04-23T22:32:24.665Z,12.10
2023-04-23T22:34:53.828Z,12.10
2023-04-23T22:37:22.494Z,12.00
2023-04-23T22:39:51.191Z,12.00
2023-04-23T22:42:21.165Z,12.00
2023-04-23T22:44:49.851Z,11.90
2023-04-23T22:47:19.665Z,11.90
2023-04-23T22:49:48.301Z,11.80
2023-04-23T22:52:16.932Z,11.80
2023-04-23T22:54:45.375Z,11.80
2023-04-23T22:57:13.941Z,11.80
2023-04-23T22:59:44.460Z,11.80
2023-04-23T23:02:13.666Z,11.80
2023-04-23T23:04:42.513Z,11.80
2023-04-23T23:07:11.717Z,11.80
2023-04-23T23:09:40.491Z,11.80
2023-04-23T23:12:09.442Z,11.70
2023-04-23T23:14:38.903Z,11.70
2023-04-23T23:17:08.713Z,11.70
2023-04-23T23:19:37.322Z,11.70
2023-04-23T23:22:06.254Z,11.70
2023-04-23T23:24:34.890Z,11.70
2023-04-23T23:27:04.310Z,11.70
2023-04-23T23:29:32.731Z,11.70
2023-04-23T23:32:01.424Z,11.60
2023-04-23T23:34:31.423Z,11.60
2023-04-23T23:36:59.921Z,11.50
2023-04-23T23:39:29.230Z,11.50
2023-04-23T23:41:59.694Z,11.40
2023-04-23T23:44:28.803Z,11.40
2023-04-23T23:46:58.009Z,11.30
2023-04-23T23:49:31.105Z,11.30
2023-04-23T23:51:59.902Z,11.30
2023-04-23T23:54:28.547Z,11.20
2023-04-23T23:56:57.091Z,11.20
2023-04-23T23:59:25.981Z,11.20
